createdAt,value
2023-03-06T00:00:50.394Z,1.63
2023-03-06T00:03:16.935Z,1.47
2023-03-06T00:05:43.725Z,2.38
2023-03-06T00:08:10.870Z,1.50
2023-03-06T00:10:38.042Z,2.60
2023-03-06T00:13:08.380Z,3.25
2023-03-06T00:15:35.032Z,1.30
2023-03-06T00:18:04.543Z,2.58
2023-03-06T00:20:31.538Z,6.40
2023-03-06T00:22:58.284Z,2.15
2023-03-06T00:25:25.364Z,3.30
2023-03-06T00:27:52.281Z,1.13
2023-03-06T00:30:22.397Z,3.75
2023-03-06T00:32:49.454Z,2.70
2023-03-06T00:35:16.443Z,8.00
2023-03-06T00:37:43.700Z,3.17
2023-03-06T00:40:13.865Z,1.97
2023-03-06T00:42:40.914Z,1.83
2023-03-06T00:45:07.937Z,1.98
2023-03-06T00:47:34.840Z,1.88
2023-03-06T00:50:01.517Z,2.53
2023-03-06T00:52:27.943Z,2.80
2023-03-06T00:54:54.414Z,2.53
2023-03-06T00:57:20.950Z,2.00
2023-03-06T00:59:47.509Z,2.22
2023-03-06T01:02:14.256Z,2.40
2023-03-06T01:04:40.767Z,3.10
2023-03-06T01:07:07.380Z,4.75
2023-03-06T01:09:33.837Z,2.25
2023-03-06T01:12:00.521Z,2.97
2023-03-06T01:14:27.172Z,6.40
2023-03-06T01:16:53.767Z,3.70
2023-03-06T01:19:20.230Z,2.13
2023-03-06T01:21:46.668Z,5.97
2023-03-06T01:24:13.148Z,4.32
2023-03-06T01:26:39.697Z,7.80
2023-03-06T01:29:06.411Z,5.33
2023-03-06T01:31:33.131Z,3.80
2023-03-06T01:33:59.770Z,3.47
2023-03-06T01:36:26.214Z,2.53
2023-03-06T01:38:52.654Z,3.95
2023-03-06T01:41:21.132Z,3.00
2023-03-06T01:43:47.625Z,4.85
2023-03-06T01:46:22.857Z,3.28
2023-03-06T01:48:54.006Z,4.38
2023-03-06T01:51:22.044Z,3.08
2023-03-06T01:53:51.034Z,3.63
2023-03-06T01:56:17.874Z,3.63
2023-03-06T01:58:45.058Z,2.88
2023-03-06T02:01:14.847Z,3.35
2023-03-06T02:03:42.775Z,4.75
2023-03-06T02:06:09.642Z,5.63
2023-03-06T02:08:36.267Z,6.00
2023-03-06T02:11:08.622Z,4.43
2023-03-06T02:13:36.299Z,4.47
2023-03-06T02:16:02.904Z,6.50
2023-03-06T02:18:30.162Z,6.70
2023-03-06T02:21:04.326Z,6.68
2023-03-06T02:23:51.039Z,4.32
2023-03-06T02:26:18.926Z,10.35
2023-03-06T02:28:46.682Z,7.55
2023-03-06T02:31:23.751Z,5.83
2023-03-06T02:34:06.225Z,6.15
2023-03-06T02:36:37.879Z,5.20
2023-03-06T02:39:05.559Z,6.30
2023-03-06T02:41:32.128Z,9.43
2023-03-06T02:43:58.611Z,8.40
2023-03-06T02:46:25.174Z,10.30
2023-03-06T02:48:51.687Z,9.95
2023-03-06T02:51:18.130Z,11.10
2023-03-06T02:53:44.588Z,10.70
2023-03-06T02:56:11.002Z,7.80
2023-03-06T02:58:37.626Z,7.85
2023-03-06T03:01:04.782Z,14.60
2023-03-06T03:03:33.044Z,5.40
2023-03-06T03:06:00.776Z,7.80
2023-03-06T03:08:28.380Z,6.33
2023-03-06T03:10:56.513Z,12.35
2023-03-06T03:13:23.447Z,5.97
2023-03-06T03:16:07.736Z,10.30
2023-03-06T03:18:35.405Z,6.53
2023-03-06T03:21:02.316Z,7.63
2023-03-06T03:23:28.799Z,6.45
2023-03-06T03:25:55.279Z,8.00
2023-03-06T03:28:21.727Z,7.60
2023-03-06T03:30:48.330Z,9.00
2023-03-06T03:33:14.815Z,5.47
2023-03-06T03:35:41.457Z,8.10
2023-03-06T03:38:07.870Z,11.07
2023-03-06T03:40:34.552Z,10.10
2023-03-06T03:43:01.080Z,8.25
2023-03-06T03:45:27.621Z,8.77
2023-03-06T03:47:54.008Z,9.07
2023-03-06T03:50:20.597Z,6.45
2023-03-06T03:52:47.104Z,9.20
2023-03-06T03:55:13.655Z,5.95
2023-03-06T03:57:40.216Z,8.87
2023-03-06T04:00:08.155Z,5.93
2023-03-06T04:02:34.698Z,7.47
2023-03-06T04:05:01.181Z,6.03
2023-03-06T04:07:27.656Z,5.22
2023-03-06T04:09:54.177Z,3.97
2023-03-06T04:12:20.678Z,5.00
2023-03-06T04:14:47.198Z,10.27
2023-03-06T04:17:13.706Z,9.57
2023-03-06T04:19:40.127Z,6.68
2023-03-06T04:22:06.570Z,7.63
2023-03-06T04:24:33.009Z,6.70
2023-03-06T04:26:59.520Z,8.13
2023-03-06T04:29:26.036Z,7.90
2023-03-06T04:31:52.507Z,5.85
2023-03-06T04:34:18.912Z,4.87
2023-03-06T04:36:45.350Z,6.78
2023-03-06T04:39:13.039Z,9.52
2023-03-06T04:41:40.694Z,7.70
2023-03-06T04:44:08.127Z,6.20
2023-03-06T04:46:34.826Z,6.43
2023-03-06T04:49:01.347Z,9.07
2023-03-06T04:51:27.993Z,8.43
2023-03-06T04:53:54.493Z,6.53
2023-03-06T04:56:20.918Z,5.75
2023-03-06T04:58:47.392Z,5.90
2023-03-06T05:01:13.948Z,7.53
2023-03-06T05:03:40.740Z,6.25
2023-03-06T05:06:07.429Z,3.97
2023-03-06T05:08:33.958Z,4.05
2023-03-06T05:11:01.914Z,3.63
2023-03-06T05:13:29.072Z,3.03
2023-03-06T05:15:55.676Z,5.75
2023-03-06T05:18:22.167Z,2.63
2023-03-06T05:20:48.733Z,4.07
2023-03-06T05:23:15.224Z,3.43
2023-03-06T05:25:42.299Z,3.60
2023-03-06T05:28:09.110Z,2.42
2023-03-06T05:30:35.897Z,2.38
2023-03-06T05:33:02.413Z,6.55
2023-03-06T05:35:28.952Z,1.97
2023-03-06T05:37:55.388Z,1.83
2023-03-06T05:40:22.378Z,3.90
2023-03-06T05:42:48.998Z,2.83
2023-03-06T05:45:15.614Z,2.40
2023-03-06T05:47:42.094Z,2.10
2023-03-06T05:50:10.465Z,1.80
2023-03-06T05:52:39.592Z,1.92
2023-03-06T05:55:07.404Z,2.95
2023-03-06T05:57:34.047Z,3.05
2023-03-06T06:00:00.618Z,4.30
2023-03-06T06:02:27.158Z,2.58
2023-03-06T06:04:53.640Z,3.13
2023-03-06T06:07:20.071Z,3.40
2023-03-06T06:09:46.640Z,7.47
2023-03-06T06:12:14.035Z,3.80
2023-03-06T06:14:40.531Z,2.83
2023-03-06T06:17:07.520Z,3.45
2023-03-06T06:19:34.020Z,1.67
2023-03-06T06:22:02.563Z,3.58
2023-03-06T06:24:29.554Z,5.63
2023-03-06T06:26:57.160Z,3.83
2023-03-06T06:29:25.410Z,2.47
2023-03-06T06:31:52.818Z,1.55
2023-03-06T06:34:20.387Z,1.20
2023-03-06T06:36:47.115Z,1.73
2023-03-06T06:39:18.003Z,3.22
2023-03-06T06:42:02.341Z,1.80
2023-03-06T06:44:31.791Z,0.88
2023-03-06T06:49:46.429Z,0.60
2023-03-06T06:52:12.874Z,2.40
2023-03-06T06:54:39.318Z,0.60
2023-03-06T06:57:05.781Z,0.85
2023-03-06T06:59:32.252Z,1.25
2023-03-06T07:01:58.736Z,0.93
2023-03-06T07:04:25.224Z,1.83
2023-03-06T07:06:55.626Z,0.80
2023-03-06T07:09:22.330Z,1.27
2023-03-06T07:11:48.853Z,1.88
2023-03-06T07:14:15.375Z,1.33
2023-03-06T07:16:41.984Z,0.95
2023-03-06T07:19:08.428Z,0.43
2023-03-06T07:21:34.986Z,2.00
2023-03-06T07:24:01.595Z,1.02
2023-03-06T07:26:28.645Z,1.70
2023-03-06T07:28:55.353Z,1.23
2023-03-06T07:31:24.760Z,2.53
2023-03-06T07:33:53.051Z,0.52
2023-03-06T07:36:20.896Z,0.50
2023-03-06T07:38:47.646Z,0.50
2023-03-06T07:41:16.307Z,2.42
2023-03-06T07:43:44.499Z,2.63
2023-03-06T07:46:12.782Z,1.27
2023-03-06T07:48:40.349Z,1.63
2023-03-06T07:51:18.679Z,0.30
2023-03-06T07:53:45.319Z,0.30
2023-03-06T07:56:12.887Z,0.50
2023-03-06T07:58:41.586Z,0.25
2023-03-06T08:01:10.956Z,0.30
2023-03-06T08:03:37.697Z,0.37
2023-03-06T08:06:12.179Z,2.10
2023-03-06T08:08:40.397Z,0.17
2023-03-06T08:11:08.580Z,1.10
2023-03-06T08:13:35.793Z,0.20
2023-03-06T08:16:02.824Z,1.40
2023-03-06T08:18:29.635Z,1.27
2023-03-06T08:21:07.694Z,0.85
2023-03-06T08:23:34.779Z,0.15
2023-03-06T08:26:10.559Z,0.10
2023-03-06T08:28:39.238Z,0.83
2023-03-06T08:31:23.813Z,3.53
2023-03-06T08:33:53.991Z,0.47
2023-03-06T08:36:20.547Z,4.28
2023-03-06T08:38:47.040Z,0.38
2023-03-06T08:41:13.510Z,0.57
2023-03-06T08:43:40.266Z,1.20
2023-03-06T08:46:06.873Z,2.33
2023-03-06T08:48:33.493Z,0.03
2023-03-06T08:50:59.957Z,0.30
2023-03-06T08:53:41.612Z,1.97
2023-03-06T08:56:18.474Z,0.38
2023-03-06T08:58:45.699Z,1.63
2023-03-06T09:01:21.186Z,2.33
2023-03-06T09:03:48.154Z,2.10
2023-03-06T09:06:15.204Z,2.60
2023-03-06T09:08:43.863Z,1.38
2023-03-06T09:11:12.697Z,0.15
2023-03-06T09:13:39.682Z,0.45
2023-03-06T09:16:06.830Z,0.32
2023-03-06T09:18:33.524Z,0.60
2023-03-06T09:21:00.134Z,0.57
2023-03-06T09:23:26.603Z,0.57
2023-03-06T09:25:54.317Z,1.35
2023-03-06T09:28:20.988Z,0.30
2023-03-06T09:30:47.892Z,1.20
2023-03-06T09:33:14.777Z,0.20
2023-03-06T09:35:49.215Z,0.20
2023-03-06T09:38:15.754Z,1.48
2023-03-06T09:40:55.444Z,1.30
2023-03-06T09:43:29.511Z,0.97
2023-03-06T09:45:57.333Z,0.20
2023-03-06T09:48:38.130Z,1.27
2023-03-06T09:51:15.065Z,0.30
2023-03-06T09:53:49.837Z,0.50
2023-03-06T09:56:19.644Z,5.23
2023-03-06T09:58:55.794Z,0.52
2023-03-06T10:01:27.949Z,1.95
2023-03-06T10:04:04.611Z,1.55
2023-03-06T10:06:41.311Z,0.60
2023-03-06T10:09:17.296Z,0.93
2023-03-06T10:11:51.430Z,0.95
2023-03-06T10:14:21.501Z,0.55
2023-03-06T10:16:48.133Z,0.38
2023-03-06T10:19:20.115Z,0.40
2023-03-06T10:22:06.017Z,0.13
2023-03-06T10:24:42.333Z,1.08
2023-03-06T10:27:27.633Z,0.10
2023-03-06T10:30:32.673Z,1.33
2023-03-06T10:33:33.512Z,0.77
2023-03-06T10:36:00.185Z,0.93
2023-03-06T10:38:37.649Z,0.30
2023-03-06T10:41:07.322Z,0.30
2023-03-06T10:43:36.552Z,1.00
2023-03-06T10:46:05.250Z,4.45
2023-03-06T10:48:35.968Z,2.03
2023-03-06T10:51:19.528Z,0.17
2023-03-06T10:53:52.075Z,1.92
2023-03-06T10:56:36.852Z,0.20
2023-03-06T10:59:35.687Z,0.20
2023-03-06T11:02:25.643Z,0.77
2023-03-06T11:04:54.232Z,2.80
2023-03-06T11:07:32.639Z,4.22
2023-03-06T11:10:01.758Z,0.15
2023-03-06T11:12:34.294Z,0.75
2023-03-06T11:15:07.245Z,0.77
2023-03-06T11:17:58.996Z,0.65
2023-03-06T11:20:44.621Z,2.08
2023-03-06T11:23:30.183Z,0.55
2023-03-06T11:26:03.083Z,0.38
2023-03-06T11:28:58.984Z,0.13
2023-03-06T11:31:37.097Z,0.82
2023-03-06T11:34:23.212Z,0.80
2023-03-06T11:37:08.406Z,0.35
2023-03-06T11:39:47.894Z,0.20
2023-03-06T11:42:17.291Z,1.23
2023-03-06T11:45:09.978Z,2.53
2023-03-06T11:47:48.424Z,2.38
2023-03-06T11:50:35.791Z,0.28
2023-03-06T11:53:05.183Z,1.02
2023-03-06T11:55:40.669Z,0.30
2023-03-06T11:58:44.590Z,1.77
2023-03-06T12:01:26.910Z,0.70
2023-03-06T12:04:23.239Z,0.50
2023-03-06T12:07:10.926Z,3.40
2023-03-06T12:09:55.029Z,2.83
2023-03-06T12:12:42.836Z,1.83
2023-03-06T12:15:45.832Z,0.68
2023-03-06T12:19:03.113Z,0.88
2023-03-06T12:22:00.036Z,0.52
2023-03-06T12:24:34.971Z,1.07
2023-03-06T12:27:04.569Z,1.25
2023-03-06T12:29:45.944Z,2.10
2023-03-06T12:32:31.163Z,0.60
2023-03-06T12:35:12.435Z,4.75
2023-03-06T12:37:55.065Z,3.60
2023-03-06T12:40:39.862Z,2.85
2023-03-06T12:43:10.253Z,0.98
2023-03-06T12:45:38.166Z,4.50
2023-03-06T12:48:14.769Z,2.85
2023-03-06T12:50:44.464Z,1.47
2023-03-06T12:53:29.898Z,2.25
2023-03-06T12:55:58.706Z,0.82
2023-03-06T12:58:28.223Z,1.95
2023-03-06T13:01:05.806Z,3.53
2023-03-06T13:04:00.225Z,2.30
2023-03-06T13:06:57.514Z,2.92
2023-03-06T13:09:53.816Z,1.05
2023-03-06T13:12:40.221Z,1.00
2023-03-06T13:15:31.524Z,2.03
2023-03-06T13:17:58.169Z,1.30
2023-03-06T13:20:38.347Z,1.73
2023-03-06T13:23:33.015Z,1.80
2023-03-06T13:26:00.457Z,3.08
2023-03-06T13:28:40.108Z,1.77
2023-03-06T13:31:10.627Z,1.90
2023-03-06T13:33:39.052Z,7.38
2023-03-06T13:36:30.362Z,6.03
2023-03-06T13:39:03.836Z,7.28
2023-03-06T13:41:30.349Z,2.20
2023-03-06T13:43:58.953Z,4.45
2023-03-06T13:46:30.871Z,3.10
2023-03-06T13:49:09.545Z,5.53
2023-03-06T13:51:38.924Z,8.63
2023-03-06T13:54:36.415Z,4.82
2023-03-06T13:57:21.687Z,3.80
2023-03-06T14:00:33.531Z,3.83
2023-03-06T14:03:08.987Z,6.78
2023-03-06T14:05:49.600Z,5.03
2023-03-06T14:08:30.271Z,4.93
2023-03-06T14:11:22.986Z,4.53
2023-03-06T14:13:55.552Z,7.75
2023-03-06T14:16:24.517Z,7.22
2023-03-06T14:18:53.772Z,6.47
2023-03-06T14:21:30.902Z,6.00
2023-03-06T14:24:03.183Z,5.00
2023-03-06T14:26:40.023Z,4.55
2023-03-06T14:29:28.224Z,4.07
2023-03-06T14:31:59.888Z,5.00
2023-03-06T14:34:29.948Z,4.53
2023-03-06T14:37:18.308Z,3.97
2023-03-06T14:39:45.479Z,4.50
2023-03-06T14:42:26.480Z,7.40
2023-03-06T14:45:13.556Z,3.45
2023-03-06T14:47:39.968Z,4.40
2023-03-06T14:50:40.926Z,2.80
2023-03-06T14:53:29.066Z,3.85
2023-03-06T14:56:01.611Z,3.10
2023-03-06T14:59:04.890Z,3.78
2023-03-06T15:01:38.395Z,2.67
2023-03-06T15:04:28.810Z,2.70
2023-03-06T15:06:56.622Z,3.60
2023-03-06T15:09:46.344Z,3.08
2023-03-06T15:12:19.737Z,2.38
2023-03-06T15:15:29.443Z,3.95
2023-03-06T15:17:56.146Z,2.97
2023-03-06T15:20:41.472Z,2.20
2023-03-06T15:23:24.550Z,3.67
2023-03-06T15:26:00.368Z,3.65
2023-03-06T15:28:38.616Z,3.28
2023-03-06T15:31:05.115Z,3.93
2023-03-06T15:33:31.619Z,3.30
2023-03-06T15:36:01.760Z,2.90
2023-03-06T15:38:41.751Z,3.58
2023-03-06T15:41:22.790Z,2.67
2023-03-06T15:43:49.398Z,2.57
2023-03-06T15:46:15.924Z,7.22
2023-03-06T15:49:13.909Z,3.40
2023-03-06T15:51:40.772Z,3.53
2023-03-06T15:54:12.310Z,6.25
2023-03-06T15:56:41.697Z,4.70
2023-03-06T15:59:15.347Z,4.15
2023-03-06T16:01:43.298Z,6.78
2023-03-06T16:04:09.967Z,7.50
2023-03-06T16:06:37.633Z,8.23
2023-03-06T16:09:05.759Z,7.53
2023-03-06T16:11:43.233Z,7.35
2023-03-06T16:14:21.023Z,8.70
2023-03-06T16:16:48.690Z,9.93
2023-03-06T16:19:28.137Z,22.38
2023-03-06T16:21:56.386Z,9.80
2023-03-06T16:24:23.544Z,9.07
2023-03-06T16:26:51.828Z,10.98
2023-03-06T16:29:23.468Z,13.18
2023-03-06T16:31:50.064Z,10.90
2023-03-06T16:34:19.634Z,12.47
2023-03-06T16:36:48.221Z,11.68
2023-03-06T16:39:16.997Z,14.48
2023-03-06T16:41:45.837Z,13.23
2023-03-06T16:44:12.980Z,12.13
2023-03-06T16:46:45.210Z,12.37
2023-03-06T16:49:22.823Z,14.52
2023-03-06T16:51:50.164Z,13.63
2023-03-06T16:54:17.328Z,12.82
2023-03-06T16:56:44.225Z,13.98
2023-03-06T16:59:11.966Z,15.47
2023-03-06T17:01:42.652Z,12.07
2023-03-06T17:04:09.447Z,14.40
2023-03-06T17:06:35.911Z,13.43
2023-03-06T17:09:02.368Z,14.88
2023-03-06T17:11:29.361Z,15.13
2023-03-06T17:13:55.879Z,14.60
2023-03-06T17:16:22.427Z,14.73
2023-03-06T17:18:49.596Z,12.00
2023-03-06T17:21:16.308Z,13.10
2023-03-06T17:23:43.096Z,14.33
2023-03-06T17:26:18.048Z,13.60
2023-03-06T17:28:45.501Z,14.32
2023-03-06T17:31:16.461Z,16.05
2023-03-06T17:33:43.652Z,14.95
2023-03-06T17:36:10.904Z,11.10
2023-03-06T17:38:37.631Z,12.63
2023-03-06T17:41:05.928Z,15.00
2023-03-06T17:43:33.556Z,12.10
2023-03-06T17:46:18.544Z,15.40
2023-03-06T17:48:45.390Z,13.60
2023-03-06T17:51:12.047Z,13.00
2023-03-06T17:53:39.339Z,13.63
2023-03-06T17:56:08.771Z,14.43
2023-03-06T17:58:35.408Z,15.05
2023-03-06T18:01:13.401Z,13.27
2023-03-06T18:03:44.372Z,12.77
2023-03-06T18:06:10.923Z,19.08
2023-03-06T18:08:38.055Z,14.50
2023-03-06T18:11:06.745Z,13.40
2023-03-06T18:13:34.690Z,16.70
2023-03-06T18:16:01.492Z,16.42
2023-03-06T18:18:28.438Z,21.65
2023-03-06T18:20:55.119Z,11.00
2023-03-06T18:23:21.724Z,16.70
2023-03-06T18:25:48.335Z,17.77
2023-03-06T18:28:14.724Z,19.67
2023-03-06T18:30:42.319Z,22.70
2023-03-06T18:33:09.834Z,18.52
2023-03-06T18:35:36.805Z,17.98
2023-03-06T18:38:03.557Z,19.67
2023-03-06T18:40:30.092Z,21.45
2023-03-06T18:42:56.686Z,18.23
2023-03-06T18:45:23.167Z,15.02
2023-03-06T18:47:49.586Z,16.15
2023-03-06T18:50:17.610Z,16.70
2023-03-06T18:52:44.751Z,15.52
2023-03-06T18:55:12.158Z,15.73
2023-03-06T18:57:39.161Z,16.10
2023-03-06T19:00:07.750Z,16.60
2023-03-06T19:02:34.537Z,18.33
2023-03-06T19:05:00.970Z,21.77
2023-03-06T19:07:27.425Z,19.80
2023-03-06T19:09:53.966Z,14.85
2023-03-06T19:12:20.595Z,17.77
2023-03-06T19:14:47.091Z,15.47
2023-03-06T19:17:13.571Z,18.38
2023-03-06T19:19:40.082Z,16.02
2023-03-06T19:22:06.558Z,18.25
2023-03-06T19:24:32.980Z,17.15
2023-03-06T19:26:59.404Z,20.13
2023-03-06T19:29:25.952Z,19.33
2023-03-06T19:31:52.486Z,19.50
2023-03-06T19:34:19.103Z,18.80
2023-03-06T19:36:45.526Z,22.15
2023-03-06T19:39:12.102Z,17.57
2023-03-06T19:41:38.517Z,22.67
2023-03-06T19:44:05.822Z,22.20
2023-03-06T19:46:32.449Z,21.02
2023-03-06T19:49:01.396Z,23.35
2023-03-06T19:51:28.985Z,20.40
2023-03-06T19:53:56.718Z,24.17
2023-03-06T19:56:28.988Z,24.95
2023-03-06T19:58:56.219Z,24.40
2023-03-06T20:01:24.885Z,23.58
2023-03-06T20:03:58.915Z,23.80
2023-03-06T20:06:27.905Z,17.80
2023-03-06T20:08:54.599Z,22.23
2023-03-06T20:11:26.618Z,22.95
2023-03-06T20:13:53.479Z,20.77
2023-03-06T20:16:20.320Z,22.07
2023-03-06T20:18:46.861Z,25.50
2023-03-06T20:21:14.534Z,22.58
2023-03-06T20:23:41.358Z,24.75
2023-03-06T20:26:10.697Z,23.20
2023-03-06T20:28:39.180Z,21.93
2023-03-06T20:31:16.309Z,22.35
2023-03-06T20:33:43.834Z,19.98
2023-03-06T20:36:24.434Z,20.05
2023-03-06T20:38:51.008Z,17.80
2023-03-06T20:41:20.720Z,21.43
2023-03-06T20:43:47.391Z,21.95
2023-03-06T20:46:14.378Z,20.15
2023-03-06T20:48:41.999Z,23.60
2023-03-06T20:51:21.047Z,18.27
2023-03-06T20:53:49.071Z,19.13
2023-03-06T20:56:20.241Z,22.15
2023-03-06T20:58:46.960Z,19.23
2023-03-06T21:01:27.510Z,18.73
2023-03-06T21:03:55.009Z,21.13
2023-03-06T21:06:21.498Z,19.20
2023-03-06T21:08:48.631Z,20.30
2023-03-06T21:11:16.129Z,20.85
2023-03-06T21:13:43.012Z,18.58
2023-03-06T21:16:15.269Z,19.33
2023-03-06T21:18:42.329Z,18.00
2023-03-06T21:21:11.304Z,17.27
2023-03-06T21:23:38.141Z,19.92
2023-03-06T21:26:05.512Z,19.70
2023-03-06T21:28:32.434Z,17.35
2023-03-06T21:31:02.490Z,17.97
2023-03-06T21:33:29.291Z,21.05
2023-03-06T21:35:55.798Z,20.77
2023-03-06T21:38:22.284Z,16.98
2023-03-06T21:40:48.697Z,17.85
2023-03-06T21:43:17.396Z,19.07
2023-03-06T21:45:46.053Z,16.38
2023-03-06T21:48:14.428Z,16.88
2023-03-06T21:50:41.418Z,19.35
2023-03-06T21:53:08.572Z,19.13
2023-03-06T21:55:38.816Z,15.67
2023-03-06T21:58:05.498Z,16.35
2023-03-06T22:00:36.072Z,13.23
2023-03-06T22:03:03.553Z,13.43
2023-03-06T22:05:31.905Z,12.07
2023-03-06T22:07:59.223Z,10.87
2023-03-06T22:10:25.736Z,11.68
2023-03-06T22:12:52.365Z,10.93
2023-03-06T22:15:21.738Z,10.10
2023-03-06T22:17:48.574Z,6.55
2023-03-06T22:20:15.447Z,7.40
2023-03-06T22:22:42.322Z,7.95
2023-03-06T22:25:09.221Z,7.43
2023-03-06T22:27:35.957Z,4.90
2023-03-06T22:30:02.525Z,6.13
2023-03-06T22:32:29.035Z,5.07
2023-03-06T22:34:55.490Z,3.38
2023-03-06T22:37:21.956Z,3.65
2023-03-06T22:39:48.438Z,6.50
2023-03-06T22:42:14.966Z,4.72
2023-03-06T22:44:41.437Z,6.07
2023-03-06T22:47:08.189Z,2.92
2023-03-06T22:49:34.837Z,5.60
2023-03-06T22:52:01.342Z,3.95
2023-03-06T22:54:27.761Z,5.13
2023-03-06T22:56:54.239Z,3.90
2023-03-06T22:59:20.627Z,5.47
2023-03-06T23:01:47.112Z,3.92
2023-03-06T23:04:13.627Z,3.67
2023-03-06T23:06:42.004Z,3.53
2023-03-06T23:09:20.452Z,3.83
2023-03-06T23:11:47.826Z,5.82
2023-03-06T23:14:15.525Z,4.63
2023-03-06T23:16:42.124Z,3.53
2023-03-06T23:19:08.857Z,5.13
2023-03-06T23:21:35.655Z,5.07
2023-03-06T23:24:02.842Z,2.33
2023-03-06T23:26:31.341Z,3.85
2023-03-06T23:28:58.117Z,5.40
2023-03-06T23:31:28.796Z,3.00
2023-03-06T23:34:00.341Z,2.97
2023-03-06T23:36:28.212Z,5.18
2023-03-06T23:38:55.010Z,3.42
2023-03-06T23:41:22.363Z,5.95
2023-03-06T23:43:49.601Z,4.35
2023-03-06T23:46:17.803Z,6.53
2023-03-06T23:48:44.988Z,11.43
2023-03-06T23:51:20.622Z,6.25
2023-03-06T23:53:52.680Z,7.93
2023-03-06T23:56:19.089Z,9.35
2023-03-06T23:58:45.742Z,7.40
